createdAt,value
2022-09-16T00:00:10.340Z,91.91
2022-09-16T00:01:10.439Z,92.01
2022-09-16T00:02:10.357Z,92.63
2022-09-16T00:03:11.250Z,92.52
2022-09-16T00:04:11.238Z,92.01
2022-09-16T00:05:10.280Z,92.22
2022-09-16T00:06:10.257Z,92.52
2022-09-16T00:07:10.248Z,92.42
2022-09-16T00:08:10.236Z,92.01
2022-09-16T00:09:10.220Z,92.11
2022-09-16T00:10:10.212Z,92.22
2022-09-16T00:11:10.195Z,92.01
2022-09-16T00:12:10.178Z,92.32
2022-09-16T00:13:10.169Z,92.22
2022-09-16T00:14:10.152Z,92.93
2022-09-16T00:15:10.163Z,92.42
2022-09-16T00:16:10.154Z,92.83
2022-09-16T00:17:11.074Z,92.32
2022-09-16T00:18:10.100Z,92.93
2022-09-16T00:19:10.090Z,92.22
2022-09-16T00:20:10.083Z,92.83
2022-09-16T00:21:10.065Z,92.52
2022-09-16T00:22:11.004Z,90.99
2022-09-16T00:23:10.992Z,91.91
2022-09-16T00:24:10.016Z,91.71
2022-09-16T00:25:10.019Z,91.50
2022-09-16T00:26:09.992Z,91.26
2022-09-16T00:27:09.985Z,91.56
2022-09-16T00:28:09.975Z,91.87
2022-09-16T00:29:09.967Z,91.26
2022-09-16T00:30:09.956Z,91.16
2022-09-16T00:31:10.042Z,91.56
2022-09-16T00:32:09.916Z,91.56
2022-09-16T00:33:10.869Z,91.16
2022-09-16T00:34:09.887Z,91.77
2022-09-16T00:35:09.888Z,91.77
2022-09-16T00:36:09.873Z,91.66
2022-09-16T00:37:09.860Z,91.87
2022-09-16T00:38:10.785Z,92.07
2022-09-16T00:39:09.829Z,92.18
2022-09-16T00:40:09.872Z,92.11
2022-09-16T00:41:09.799Z,92.42
2022-09-16T00:42:09.781Z,93.24
2022-09-16T00:43:09.780Z,93.44
2022-09-16T00:44:09.760Z,92.42
2022-09-16T00:45:09.756Z,92.22
2022-09-16T00:46:09.732Z,92.42
2022-09-16T00:47:09.820Z,93.03
2022-09-16T00:48:10.668Z,92.68
2022-09-16T00:49:09.702Z,92.07
2022-09-16T00:50:09.718Z,92.18
2022-09-16T00:51:09.672Z,92.48
2022-09-16T00:52:09.654Z,92.89
2022-09-16T00:53:09.644Z,93.50
2022-09-16T00:54:09.624Z,93.09
2022-09-16T00:55:09.623Z,93.29
2022-09-16T00:56:09.609Z,92.99
2022-09-16T00:57:09.595Z,92.89
2022-09-16T00:58:10.375Z,92.83
2022-09-16T00:59:09.566Z,93.19
2022-09-16T01:00:09.684Z,93.44
2022-09-16T01:01:09.689Z,93.54
2022-09-16T01:02:09.624Z,93.33
2022-09-16T01:03:09.512Z,93.33
2022-09-16T01:04:09.506Z,93.74
2022-09-16T01:05:09.486Z,93.74
2022-09-16T01:06:09.474Z,93.89
2022-09-16T01:07:09.457Z,94.09
2022-09-16T01:08:09.447Z,94.50
2022-09-16T01:09:09.457Z,94.56
2022-09-16T01:10:09.418Z,94.56
2022-09-16T01:11:09.407Z,94.76
2022-09-16T01:12:09.388Z,94.91
2022-09-16T01:13:09.378Z,94.46
2022-09-16T01:14:09.369Z,94.26
2022-09-16T01:15:09.358Z,93.54
2022-09-16T01:16:09.370Z,93.64
2022-09-16T01:17:09.329Z,93.54
2022-09-16T01:18:09.309Z,93.85
2022-09-16T01:19:09.310Z,94.15
2022-09-16T01:20:09.291Z,94.76
2022-09-16T01:21:09.276Z,94.26
2022-09-16T01:22:09.261Z,94.35
2022-09-16T01:23:09.251Z,94.35
2022-09-16T01:24:09.243Z,93.74
2022-09-16T01:25:09.238Z,94.15
2022-09-16T01:26:09.208Z,94.30
2022-09-16T01:27:09.204Z,93.89
2022-09-16T01:28:09.188Z,93.79
2022-09-16T01:29:09.182Z,93.79
2022-09-16T01:30:09.157Z,93.89
2022-09-16T01:31:10.158Z,94.40
2022-09-16T01:32:09.133Z,94.40
2022-09-16T01:33:09.120Z,94.20
2022-09-16T01:34:09.113Z,94.30
2022-09-16T01:35:09.082Z,94.09
2022-09-16T01:36:09.073Z,94.09
2022-09-16T01:37:09.073Z,94.20
2022-09-16T01:38:09.045Z,94.09
2022-09-16T01:39:09.044Z,94.20
2022-09-16T01:40:09.069Z,94.20
2022-09-16T01:41:09.004Z,94.30
2022-09-16T01:42:08.995Z,94.34
2022-09-16T01:43:08.984Z,94.24
2022-09-16T01:44:08.965Z,94.14
2022-09-16T01:45:08.955Z,93.84
2022-09-16T01:46:08.975Z,93.93
2022-09-16T01:47:08.927Z,94.04
2022-09-16T01:48:08.906Z,94.04
2022-09-16T01:49:08.906Z,94.14
2022-09-16T01:50:08.886Z,94.45
2022-09-16T01:51:08.874Z,94.34
2022-09-16T01:52:08.857Z,93.84
2022-09-16T01:53:08.857Z,93.93
2022-09-16T01:54:08.847Z,94.34
2022-09-16T01:55:08.827Z,94.24
2022-09-16T01:56:08.809Z,94.04
2022-09-16T01:57:08.801Z,94.04
2022-09-16T01:58:08.828Z,93.73
2022-09-16T01:59:08.790Z,93.63
2022-09-16T02:00:08.749Z,93.73
2022-09-16T02:01:08.746Z,93.52
2022-09-16T02:02:08.819Z,93.43
2022-09-16T02:03:08.732Z,93.84
2022-09-16T02:04:08.700Z,93.12
2022-09-16T02:05:08.691Z,93.43
2022-09-16T02:06:08.671Z,93.12
2022-09-16T02:07:08.677Z,93.12
2022-09-16T02:08:08.672Z,93.32
2022-09-16T02:09:08.644Z,93.43
2022-09-16T02:10:08.621Z,93.43
2022-09-16T02:11:08.612Z,93.22
2022-09-16T02:12:08.592Z,93.32
2022-09-16T02:13:08.600Z,94.04
2022-09-16T02:14:08.586Z,94.14
2022-09-16T02:15:08.568Z,94.04
2022-09-16T02:16:08.614Z,94.14
2022-09-16T02:17:08.537Z,93.98
2022-09-16T02:18:08.526Z,94.04
2022-09-16T02:19:08.514Z,94.29
2022-09-16T02:20:08.485Z,94.59
2022-09-16T02:21:08.482Z,94.70
2022-09-16T02:22:08.466Z,94.90
2022-09-16T02:23:08.465Z,94.90
2022-09-16T02:24:08.446Z,94.49
2022-09-16T02:25:08.446Z,94.29
2022-09-16T02:26:09.356Z,94.79
2022-09-16T02:27:08.416Z,94.70
2022-09-16T02:28:08.387Z,94.49
2022-09-16T02:29:08.379Z,94.59
2022-09-16T02:30:08.357Z,94.70
2022-09-16T02:31:08.405Z,94.79
2022-09-16T02:32:08.347Z,94.49
2022-09-16T02:33:08.327Z,94.79
2022-09-16T02:34:08.303Z,94.90
2022-09-16T02:35:08.298Z,94.90
2022-09-16T02:36:08.278Z,94.49
2022-09-16T02:37:08.279Z,94.59
2022-09-16T02:38:08.249Z,94.38
2022-09-16T02:39:08.249Z,94.29
2022-09-16T02:40:08.268Z,94.38
2022-09-16T02:41:08.221Z,94.70
2022-09-16T02:42:08.210Z,94.49
2022-09-16T02:43:08.190Z,94.49
2022-09-16T02:44:08.183Z,94.59
2022-09-16T02:45:08.169Z,94.70
2022-09-16T02:46:08.211Z,94.79
2022-09-16T02:47:08.152Z,94.90
2022-09-16T02:48:08.122Z,94.79
2022-09-16T02:49:08.112Z,94.59
2022-09-16T02:50:08.105Z,94.70
2022-09-16T02:51:08.095Z,94.70
2022-09-16T02:52:08.074Z,94.70
2022-09-16T02:53:08.060Z,94.49
2022-09-16T02:54:08.054Z,94.70
2022-09-16T02:55:08.035Z,95.00
2022-09-16T02:56:08.026Z,95.15
2022-09-16T02:57:08.023Z,94.38
2022-09-16T02:58:07.994Z,94.38
2022-09-16T02:59:07.984Z,94.59
2022-09-16T03:00:07.965Z,94.49
2022-09-16T03:01:07.976Z,94.29
2022-09-16T03:02:08.009Z,94.29
2022-09-16T03:03:07.988Z,93.77
2022-09-16T03:04:07.916Z,94.18
2022-09-16T03:05:07.906Z,94.08
2022-09-16T03:06:07.887Z,94.49
2022-09-16T03:07:07.887Z,93.88
2022-09-16T03:08:07.857Z,93.98
2022-09-16T03:09:07.853Z,93.98
2022-09-16T03:10:07.847Z,93.57
2022-09-16T03:11:07.823Z,93.37
2022-09-16T03:12:07.818Z,93.26
2022-09-16T03:13:07.798Z,93.67
2022-09-16T03:14:07.789Z,93.47
2022-09-16T03:15:07.769Z,94.18
2022-09-16T03:16:07.815Z,93.77
2022-09-16T03:17:07.762Z,93.16
2022-09-16T03:18:07.727Z,92.76
2022-09-16T03:19:07.720Z,92.86
2022-09-16T03:20:07.701Z,93.26
2022-09-16T03:21:07.710Z,93.37
2022-09-16T03:22:07.681Z,93.47
2022-09-16T03:23:07.671Z,93.16
2022-09-16T03:24:07.661Z,93.67
2022-09-16T03:25:07.656Z,93.47
2022-09-16T03:26:07.639Z,93.37
2022-09-16T03:27:07.615Z,93.37
2022-09-16T03:28:07.602Z,93.77
2022-09-16T03:29:08.540Z,94.08
2022-09-16T03:30:07.581Z,94.08
2022-09-16T03:31:07.619Z,94.12
2022-09-16T03:32:07.553Z,94.18
2022-09-16T03:33:07.544Z,94.23
2022-09-16T03:34:07.524Z,94.23
2022-09-16T03:35:07.515Z,94.53
2022-09-16T03:36:07.534Z,94.74
2022-09-16T03:37:07.484Z,94.94
2022-09-16T03:38:07.475Z,95.35
2022-09-16T03:39:07.456Z,94.74
2022-09-16T03:40:07.498Z,95.04
2022-09-16T03:41:07.445Z,94.94
2022-09-16T03:42:07.417Z,95.04
2022-09-16T03:43:07.405Z,94.74
2022-09-16T03:44:07.396Z,94.53
2022-09-16T03:45:07.386Z,94.74
2022-09-16T03:46:07.417Z,94.74
2022-09-16T03:47:07.347Z,94.94
2022-09-16T03:48:07.338Z,95.15
2022-09-16T03:49:07.318Z,95.39
2022-09-16T03:50:07.318Z,95.80
2022-09-16T03:51:07.318Z,96.11
2022-09-16T03:52:07.289Z,96.11
2022-09-16T03:53:07.275Z,96.51
2022-09-16T03:54:08.220Z,96.31
2022-09-16T03:55:07.249Z,96.21
2022-09-16T03:56:07.241Z,96.51
2022-09-16T03:57:07.219Z,96.62
2022-09-16T03:58:07.210Z,96.83
2022-09-16T03:59:07.190Z,96.72
2022-09-16T04:00:08.140Z,96.42
2022-09-16T04:01:07.221Z,96.01
2022-09-16T04:02:07.169Z,96.11
2022-09-16T04:03:07.205Z,96.21
2022-09-16T04:04:07.132Z,96.21
2022-09-16T04:05:07.122Z,96.72
2022-09-16T04:06:07.113Z,96.51
2022-09-16T04:07:07.092Z,96.51
2022-09-16T04:08:07.083Z,96.62
2022-09-16T04:09:07.063Z,96.72
2022-09-16T04:10:07.056Z,96.62
2022-09-16T04:11:07.067Z,96.72
2022-09-16T04:12:07.032Z,96.51
2022-09-16T04:13:07.009Z,96.42
2022-09-16T04:14:07.003Z,96.51
2022-09-16T04:15:06.987Z,96.83
2022-09-16T04:16:07.055Z,96.62
2022-09-16T04:17:06.966Z,96.51
2022-09-16T04:18:06.945Z,96.62
2022-09-16T04:19:06.925Z,96.51
2022-09-16T04:20:06.926Z,96.72
2022-09-16T04:21:06.916Z,96.83
2022-09-16T04:22:06.897Z,97.13
2022-09-16T04:23:06.877Z,96.92
2022-09-16T04:24:10.770Z,96.83
2022-09-16T04:25:07.859Z,96.83
2022-09-16T04:26:06.852Z,96.83
2022-09-16T04:27:06.827Z,96.72
2022-09-16T04:28:06.818Z,96.92
2022-09-16T04:29:06.800Z,96.83
2022-09-16T04:30:06.789Z,96.83
2022-09-16T04:31:06.884Z,96.72
2022-09-16T04:32:06.765Z,97.03
2022-09-16T04:33:06.751Z,97.33
2022-09-16T04:34:06.731Z,97.03
2022-09-16T04:35:06.729Z,97.03
2022-09-16T04:36:06.731Z,96.92
2022-09-16T04:37:06.691Z,96.62
2022-09-16T04:38:06.690Z,96.83
2022-09-16T04:39:06.673Z,96.83
2022-09-16T04:40:06.709Z,96.83
2022-09-16T04:41:06.643Z,96.51
2022-09-16T04:42:06.632Z,96.21
2022-09-16T04:43:06.619Z,96.42
2022-09-16T04:44:06.610Z,96.31
2022-09-16T04:45:06.592Z,96.68
2022-09-16T04:46:06.634Z,96.42
2022-09-16T04:47:06.565Z,96.17
2022-09-16T04:48:06.553Z,95.96
2022-09-16T04:49:06.533Z,95.76
2022-09-16T04:50:06.535Z,95.76
2022-09-16T04:51:06.504Z,95.45
2022-09-16T04:52:06.504Z,95.45
2022-09-16T04:53:06.484Z,95.65
2022-09-16T04:54:06.471Z,95.45
2022-09-16T04:55:06.465Z,95.56
2022-09-16T04:56:06.447Z,95.45
2022-09-16T04:57:06.425Z,95.76
2022-09-16T04:58:06.425Z,95.96
2022-09-16T04:59:06.408Z,95.65
2022-09-16T05:00:06.407Z,95.65
2022-09-16T05:01:06.447Z,95.65
2022-09-16T05:02:06.366Z,95.65
2022-09-16T05:03:06.391Z,95.35
2022-09-16T05:04:06.345Z,95.86
2022-09-16T05:05:06.338Z,95.35
2022-09-16T05:06:06.328Z,95.35
2022-09-16T05:07:06.298Z,95.04
2022-09-16T05:08:06.289Z,94.90
2022-09-16T05:09:06.269Z,94.79
2022-09-16T05:10:06.276Z,95.20
2022-09-16T05:11:06.259Z,95.20
2022-09-16T05:12:06.239Z,95.41
2022-09-16T05:13:06.220Z,95.31
2022-09-16T05:14:06.218Z,95.20
2022-09-16T05:15:06.209Z,94.79
2022-09-16T05:16:06.238Z,94.29
2022-09-16T05:17:06.180Z,94.70
2022-09-16T05:18:07.111Z,94.34
2022-09-16T05:19:06.140Z,94.34
2022-09-16T05:20:06.149Z,94.55
2022-09-16T05:21:06.112Z,94.49
2022-09-16T05:22:06.101Z,94.70
2022-09-16T05:23:06.092Z,94.79
2022-09-16T05:24:06.085Z,94.70
2022-09-16T05:25:06.079Z,94.38
2022-09-16T05:26:06.057Z,94.49
2022-09-16T05:27:06.042Z,94.59
2022-09-16T05:28:06.031Z,94.29
2022-09-16T05:29:06.014Z,94.08
2022-09-16T05:30:06.015Z,94.38
2022-09-16T05:31:06.044Z,94.59
2022-09-16T05:32:05.976Z,94.18
2022-09-16T05:33:05.955Z,94.49
2022-09-16T05:34:05.945Z,94.70
2022-09-16T05:35:05.945Z,94.70
2022-09-16T05:36:05.925Z,94.90
2022-09-16T05:37:05.906Z,95.10
2022-09-16T05:38:05.916Z,94.70
2022-09-16T05:40:06.924Z,95.31
2022-09-16T05:41:05.856Z,95.41
2022-09-16T05:42:05.849Z,94.95
2022-09-16T05:43:05.828Z,94.75
2022-09-16T05:44:05.873Z,94.85
2022-09-16T05:45:05.810Z,95.06
2022-09-16T05:46:05.833Z,95.67
2022-09-16T05:47:05.787Z,95.36
2022-09-16T05:48:05.769Z,95.06
2022-09-16T05:49:05.749Z,95.06
2022-09-16T05:50:05.749Z,94.75
2022-09-16T05:51:05.719Z,94.60
2022-09-16T05:52:05.711Z,94.40
2022-09-16T05:53:05.700Z,94.20
2022-09-16T05:54:05.708Z,93.59
2022-09-16T05:55:05.838Z,93.79
2022-09-16T05:56:05.672Z,93.33
2022-09-16T05:57:07.100Z,93.33
2022-09-16T05:58:05.641Z,92.83
2022-09-16T05:59:05.621Z,93.19
2022-09-16T06:00:05.622Z,92.89
2022-09-16T06:01:05.613Z,92.68
2022-09-16T06:02:05.660Z,92.44
2022-09-16T06:03:05.573Z,92.74
2022-09-16T06:04:05.560Z,91.93
2022-09-16T06:05:05.552Z,92.03
2022-09-16T06:06:05.533Z,91.62
2022-09-16T06:07:05.514Z,91.17
2022-09-16T06:08:05.505Z,91.58
2022-09-16T06:09:05.494Z,91.48
2022-09-16T06:10:05.495Z,89.75
2022-09-16T06:11:05.455Z,90.46
2022-09-16T06:12:05.455Z,89.95
2022-09-16T06:13:05.435Z,90.05
2022-09-16T06:14:05.425Z,90.46
2022-09-16T06:15:05.416Z,89.54
2022-09-16T06:16:05.444Z,89.03
2022-09-16T06:17:05.385Z,88.53
2022-09-16T06:18:06.673Z,89.44
2022-09-16T06:19:05.376Z,89.14
2022-09-16T06:20:05.357Z,89.50
2022-09-16T06:21:05.339Z,89.81
2022-09-16T06:22:05.341Z,89.40
2022-09-16T06:23:05.318Z,87.87
2022-09-16T06:24:05.306Z,89.09
2022-09-16T06:25:05.278Z,89.00
2022-09-16T06:26:05.269Z,88.75
2022-09-16T06:27:05.253Z,88.69
2022-09-16T06:28:05.247Z,88.28
2022-09-16T06:29:05.239Z,89.00
2022-09-16T06:30:05.217Z,88.59
2022-09-16T06:31:05.279Z,89.00
2022-09-16T06:32:05.199Z,89.00
2022-09-16T06:33:05.180Z,89.50
2022-09-16T06:34:05.185Z,89.61
2022-09-16T06:35:05.160Z,89.50
2022-09-16T06:36:05.152Z,89.09
2022-09-16T06:37:05.121Z,86.96
2022-09-16T06:38:05.123Z,87.87
2022-09-16T06:39:05.113Z,88.89
2022-09-16T06:40:05.154Z,87.87
2022-09-16T06:41:05.078Z,88.69
2022-09-16T06:42:05.065Z,88.59
2022-09-16T06:43:05.052Z,87.77
2022-09-16T06:44:05.050Z,88.59
2022-09-16T06:45:05.034Z,88.18
2022-09-16T06:46:05.089Z,88.04
2022-09-16T06:47:04.997Z,88.75
2022-09-16T06:48:04.992Z,87.12
2022-09-16T06:49:06.413Z,87.73
2022-09-16T06:50:04.961Z,87.12
2022-09-16T06:51:04.945Z,86.88
2022-09-16T06:52:04.936Z,86.77
2022-09-16T06:53:05.584Z,87.49
2022-09-16T06:54:04.922Z,87.65
2022-09-16T06:55:04.895Z,88.16
2022-09-16T06:56:04.887Z,84.60
2022-09-16T06:57:06.597Z,85.92
2022-09-16T06:58:05.868Z,85.52
2022-09-16T06:59:04.848Z,85.27
2022-09-16T07:00:04.836Z,85.78
2022-09-16T07:01:04.897Z,86.19
2022-09-16T07:02:04.851Z,86.08
2022-09-16T07:03:04.799Z,86.80
2022-09-16T07:04:04.789Z,85.27
2022-09-16T07:05:04.766Z,84.32
2022-09-16T07:06:04.761Z,84.63
2022-09-16T07:07:09.686Z,84.83
2022-09-16T07:08:05.731Z,84.93
2022-09-16T07:09:04.731Z,84.89
2022-09-16T07:10:04.711Z,83.17
2022-09-16T07:11:04.693Z,82.76
2022-09-16T07:12:04.682Z,83.06
2022-09-16T07:13:04.677Z,83.57
2022-09-16T07:14:04.672Z,82.66
2022-09-16T07:15:04.640Z,82.76
2022-09-16T07:16:19.854Z,83.06
2022-09-16T07:17:05.683Z,83.71
2022-09-16T07:18:04.604Z,83.98
2022-09-16T07:19:04.877Z,84.08
2022-09-16T07:20:04.575Z,83.26
2022-09-16T07:21:04.555Z,83.47
2022-09-16T07:22:04.555Z,82.56
2022-09-16T07:23:04.536Z,83.57
2022-09-16T07:24:04.536Z,83.12
2022-09-16T07:25:04.519Z,84.04
2022-09-16T07:26:04.503Z,82.72
2022-09-16T07:27:04.476Z,83.12
2022-09-16T07:28:04.492Z,81.71
2022-09-16T07:29:04.469Z,82.68
2022-09-16T07:30:08.834Z,82.58
2022-09-16T07:31:04.525Z,81.30
2022-09-16T07:32:04.424Z,82.52
2022-09-16T07:33:04.405Z,81.71
2022-09-16T07:34:04.960Z,80.90
2022-09-16T07:35:04.376Z,80.19
2022-09-16T07:36:04.369Z,82.31
2022-09-16T07:37:04.359Z,79.88
2022-09-16T07:38:04.341Z,80.79
2022-09-16T07:39:04.330Z,81.40
2022-09-16T07:40:04.331Z,82.31
2022-09-16T07:41:04.301Z,81.40
2022-09-16T07:42:06.178Z,81.40
2022-09-16T07:43:04.271Z,81.40
2022-09-16T07:44:04.271Z,81.13
2022-09-16T07:45:04.253Z,82.25
2022-09-16T07:46:04.305Z,82.25
2022-09-16T07:47:04.223Z,82.72
2022-09-16T07:48:04.202Z,81.30
2022-09-16T07:49:04.206Z,82.72
2022-09-16T07:50:04.183Z,81.60
2022-09-16T07:51:04.171Z,82.01
2022-09-16T07:52:04.151Z,83.29
2022-09-16T07:53:04.156Z,81.67
2022-09-16T07:54:04.134Z,81.57
2022-09-16T07:55:04.115Z,81.87
2022-09-16T07:56:04.095Z,81.46
2022-09-16T07:57:04.085Z,80.96
2022-09-16T07:58:04.149Z,81.67
2022-09-16T07:59:04.066Z,82.89
2022-09-16T08:00:04.046Z,80.05
2022-09-16T08:01:04.995Z,80.69
2022-09-16T08:02:04.101Z,80.29
2022-09-16T08:03:04.097Z,80.05
2022-09-16T08:04:03.998Z,81.46
2022-09-16T08:05:03.994Z,80.86
2022-09-16T08:06:03.978Z,80.65
2022-09-16T08:07:03.957Z,81.67
2022-09-16T08:08:03.940Z,81.43
2022-09-16T08:09:15.681Z,79.91
2022-09-16T08:10:04.911Z,81.02
2022-09-16T08:11:03.916Z,80.62
2022-09-16T08:12:03.880Z,77.07
2022-09-16T08:13:03.872Z,78.22
2022-09-16T08:14:04.863Z,79.60
2022-09-16T08:15:03.851Z,78.89
2022-09-16T08:16:03.831Z,80.18
2022-09-16T08:17:03.826Z,79.57
2022-09-16T08:18:03.803Z,79.97
2022-09-16T08:19:03.802Z,77.84
2022-09-16T08:20:03.816Z,78.42
2022-09-16T08:21:03.770Z,79.83
2022-09-16T08:22:03.754Z,77.50
2022-09-16T08:23:03.741Z,78.05
2022-09-16T08:24:03.739Z,77.48
2022-09-16T08:25:03.729Z,78.69
2022-09-16T08:26:03.695Z,76.87
2022-09-16T08:27:03.695Z,79.40
2022-09-16T08:28:03.686Z,79.91
2022-09-16T08:29:08.797Z,78.35
2022-09-16T08:30:05.608Z,79.16
2022-09-16T08:31:03.636Z,77.14
2022-09-16T08:32:03.681Z,76.87
2022-09-16T08:33:03.607Z,78.19
2022-09-16T08:34:03.597Z,76.53
2022-09-16T08:35:03.587Z,78.08
2022-09-16T08:36:03.565Z,77.78
2022-09-16T08:37:03.554Z,78.49
2022-09-16T08:38:04.491Z,79.40
2022-09-16T08:39:03.540Z,79.71
2022-09-16T08:40:03.615Z,78.79
2022-09-16T08:41:03.499Z,78.75
2022-09-16T08:42:03.483Z,79.06
2022-09-16T08:43:03.480Z,78.66
2022-09-16T08:44:03.470Z,78.01
2022-09-16T08:45:03.451Z,77.50
2022-09-16T08:46:03.484Z,74.84
2022-09-16T08:47:03.425Z,77.17
2022-09-16T08:48:03.403Z,77.06
2022-09-16T08:49:03.438Z,76.70
2022-09-16T08:50:03.399Z,76.19
2022-09-16T08:51:03.381Z,77.30
2022-09-16T08:52:03.356Z,78.31
2022-09-16T08:53:03.345Z,75.28
2022-09-16T08:54:03.334Z,77.10
2022-09-16T08:55:03.315Z,79.13
2022-09-16T08:56:03.304Z,78.01
2022-09-16T08:57:03.293Z,77.81
2022-09-16T08:58:03.275Z,77.44
2022-09-16T08:59:04.231Z,75.96
2022-09-16T09:00:03.256Z,77.37
2022-09-16T09:01:03.414Z,78.02
2022-09-16T09:02:08.890Z,81.23
2022-09-16T09:03:04.207Z,80.11
2022-09-16T09:04:03.196Z,81.02
2022-09-16T09:05:04.145Z,81.87
2022-09-16T09:06:03.168Z,81.67
2022-09-16T09:07:03.161Z,83.12
2022-09-16T09:08:03.148Z,83.94
2022-09-16T09:09:03.132Z,84.64
2022-09-16T09:10:07.025Z,85.31
2022-09-16T09:11:04.110Z,83.59
2022-09-16T09:12:03.093Z,82.75
2022-09-16T09:13:03.411Z,82.90
2022-09-16T09:14:03.058Z,82.87
2022-09-16T09:15:03.057Z,81.71
2022-09-16T09:16:03.096Z,83.84
2022-09-16T09:17:03.022Z,83.09
2022-09-16T09:18:03.971Z,78.91
2022-09-16T09:19:03.010Z,77.03
2022-09-16T09:20:02.982Z,77.13
2022-09-16T09:21:03.824Z,78.58
2022-09-16T09:22:02.952Z,74.74
2022-09-16T09:23:02.953Z,76.29
2022-09-16T09:24:02.923Z,76.93
2022-09-16T09:25:02.915Z,78.55
2022-09-16T09:26:02.897Z,79.80
2022-09-16T09:27:02.883Z,80.41
2022-09-16T09:28:02.876Z,80.72
2022-09-16T09:29:02.863Z,81.37
2022-09-16T09:30:02.859Z,81.81
2022-09-16T09:31:04.349Z,83.06
2022-09-16T09:32:02.875Z,83.71
2022-09-16T09:33:02.927Z,86.19
2022-09-16T09:34:02.813Z,86.90
2022-09-16T09:35:02.785Z,88.12
2022-09-16T09:36:02.769Z,87.71
2022-09-16T09:37:02.758Z,88.42
2022-09-16T09:38:03.678Z,85.64
2022-09-16T09:39:02.728Z,88.38
2022-09-16T09:40:02.747Z,86.91
2022-09-16T09:41:02.709Z,87.18
2022-09-16T09:42:02.690Z,85.25
2022-09-16T09:43:02.680Z,86.53
2022-09-16T09:44:02.660Z,85.17
2022-09-16T09:45:02.768Z,84.12
2022-09-16T09:46:02.666Z,84.12
2022-09-16T09:47:02.634Z,83.07
2022-09-16T09:48:02.607Z,81.79
2022-09-16T09:49:02.593Z,85.24
2022-09-16T09:50:02.581Z,81.65
2022-09-16T09:51:02.570Z,80.54
2022-09-16T09:52:02.565Z,81.29
2022-09-16T09:53:02.544Z,82.81
2022-09-16T09:54:02.533Z,82.14
2022-09-16T09:55:04.513Z,85.17
2022-09-16T09:56:03.455Z,83.69
2022-09-16T09:57:02.497Z,84.70
2022-09-16T09:58:02.474Z,85.93
2022-09-16T09:59:02.464Z,86.16
2022-09-16T10:00:02.445Z,88.40
2022-09-16T10:01:02.538Z,89.06
2022-09-16T10:02:02.534Z,86.88
2022-09-16T10:03:02.416Z,88.15
2022-09-16T10:04:02.406Z,89.26
2022-09-16T10:05:02.652Z,88.92
2022-09-16T10:06:03.990Z,88.72
2022-09-16T10:08:02.338Z,86.15
2022-09-16T10:09:03.140Z,86.35
2022-09-16T10:10:02.310Z,86.15
2022-09-16T10:11:02.298Z,84.36
2022-09-16T10:12:02.299Z,87.05
2022-09-16T10:13:02.277Z,86.19
2022-09-16T10:14:02.265Z,86.49
2022-09-16T10:15:02.250Z,87.00
2022-09-16T10:16:03.227Z,86.69
2022-09-16T10:17:02.230Z,84.30
2022-09-16T10:18:02.210Z,86.83
2022-09-16T10:19:02.211Z,88.76
2022-09-16T10:20:02.174Z,87.04
2022-09-16T10:21:03.134Z,85.82
2022-09-16T10:22:03.108Z,86.29
2022-09-16T10:23:02.138Z,85.03
2022-09-16T10:24:02.123Z,83.11
2022-09-16T10:25:03.067Z,83.68
2022-09-16T10:26:03.050Z,85.19
2022-09-16T10:27:03.052Z,83.74
2022-09-16T10:28:02.078Z,83.23
2022-09-16T10:29:02.057Z,83.90
2022-09-16T10:30:03.002Z,81.98
2022-09-16T10:31:02.140Z,81.94
2022-09-16T10:32:02.073Z,78.06
2022-09-16T10:33:02.015Z,77.66
2022-09-16T10:34:01.986Z,77.39
2022-09-16T10:35:02.002Z,80.43
2022-09-16T10:36:01.961Z,77.19
2022-09-16T10:37:01.966Z,80.02
2022-09-16T10:38:01.936Z,75.37
2022-09-16T10:39:04.602Z,78.50
2022-09-16T10:40:01.997Z,78.55
2022-09-16T10:41:02.859Z,80.63
2022-09-16T10:42:01.888Z,78.00
2022-09-16T10:43:01.877Z,78.81
2022-09-16T10:44:01.853Z,77.29
2022-09-16T10:45:01.851Z,79.79
2022-09-16T10:46:01.897Z,78.27
2022-09-16T10:47:02.789Z,79.14
2022-09-16T10:48:05.056Z,77.22
2022-09-16T10:49:02.771Z,77.28
2022-09-16T10:50:02.722Z,76.34
2022-09-16T10:51:01.772Z,74.32
2022-09-16T10:52:03.392Z,74.69
2022-09-16T10:53:01.763Z,78.32
2022-09-16T10:54:01.739Z,78.02
2022-09-16T10:55:01.724Z,75.20
2022-09-16T10:56:01.702Z,73.48
2022-09-16T10:57:01.703Z,72.88
2022-09-16T10:58:01.673Z,74.49
2022-09-16T10:59:01.661Z,74.05
2022-09-16T11:00:01.645Z,75.33
2022-09-16T11:01:01.826Z,74.22
2022-09-16T11:02:01.875Z,70.79
2022-09-16T11:03:01.775Z,69.59
2022-09-16T11:04:01.605Z,70.59
2022-09-16T11:05:01.599Z,71.70
2022-09-16T11:06:01.573Z,73.01
2022-09-16T11:07:01.574Z,72.91
2022-09-16T11:08:01.547Z,71.20
2022-09-16T11:09:01.539Z,73.01
2022-09-16T11:10:01.518Z,69.65
2022-09-16T11:11:01.508Z,70.06
2022-09-16T11:12:01.761Z,71.77
2022-09-16T11:13:01.487Z,70.93
2022-09-16T11:14:01.476Z,72.20
2022-09-16T11:15:01.462Z,69.02
2022-09-16T11:16:01.482Z,70.26
2022-09-16T11:17:01.440Z,72.37
2022-09-16T11:18:01.410Z,70.76
2022-09-16T11:19:01.408Z,70.53
2022-09-16T11:20:01.398Z,71.09
2022-09-16T11:21:01.379Z,69.09
2022-09-16T11:22:01.373Z,68.85
2022-09-16T11:23:01.357Z,66.37
2022-09-16T11:24:01.343Z,69.49
2022-09-16T11:25:01.323Z,68.78
2022-09-16T11:26:01.311Z,69.99
2022-09-16T11:27:02.264Z,68.41
2022-09-16T11:28:01.284Z,69.49
2022-09-16T11:29:01.274Z,67.91
2022-09-16T11:30:01.257Z,70.83
2022-09-16T11:31:01.337Z,69.12
2022-09-16T11:32:01.226Z,71.33
2022-09-16T11:33:03.052Z,72.64
2022-09-16T11:34:01.391Z,70.66
2022-09-16T11:35:01.197Z,72.00
2022-09-16T11:36:01.186Z,69.99
2022-09-16T11:37:01.172Z,67.87
2022-09-16T11:38:01.148Z,68.57
2022-09-16T11:39:01.138Z,70.39
2022-09-16T11:40:01.152Z,67.90
2022-09-16T11:41:01.121Z,68.27
2022-09-16T11:42:01.103Z,68.68
2022-09-16T11:43:01.102Z,69.25
2022-09-16T11:44:01.081Z,69.82
2022-09-16T11:45:01.069Z,70.90
2022-09-16T11:46:01.081Z,65.73
2022-09-16T11:47:01.031Z,67.34
2022-09-16T11:48:01.021Z,68.44
2022-09-16T11:49:01.012Z,69.32
2022-09-16T11:50:00.993Z,67.00
2022-09-16T11:51:00.993Z,65.87
2022-09-16T11:52:00.963Z,67.55
2022-09-16T11:53:04.724Z,68.45
2022-09-16T11:54:01.514Z,66.54
2022-09-16T11:55:00.934Z,67.14
2022-09-16T11:56:00.927Z,68.02
2022-09-16T11:57:00.913Z,65.91
2022-09-16T11:58:00.895Z,65.33
2022-09-16T11:59:00.886Z,64.76
2022-09-16T12:00:00.867Z,65.67
2022-09-16T12:01:00.875Z,64.86
2022-09-16T12:02:00.888Z,64.56
2022-09-16T12:03:00.885Z,65.56
2022-09-16T12:04:00.822Z,63.05
2022-09-16T12:05:00.797Z,63.15
2022-09-16T12:06:00.798Z,64.23
2022-09-16T12:07:00.768Z,63.29
2022-09-16T12:08:00.759Z,61.86
2022-09-16T12:09:00.749Z,64.57
2022-09-16T12:10:00.742Z,61.66
2022-09-16T12:11:00.730Z,63.09
2022-09-16T12:12:00.710Z,63.82
2022-09-16T12:13:00.695Z,66.67
2022-09-16T12:14:05.847Z,69.56
2022-09-16T12:15:05.440Z,74.76
2022-09-16T12:16:00.678Z,72.91
2022-09-16T12:17:00.644Z,73.82
2022-09-16T12:18:00.643Z,75.51
2022-09-16T12:19:00.613Z,75.01
2022-09-16T12:20:00.604Z,74.68
2022-09-16T12:21:00.594Z,76.27
2022-09-16T12:22:00.585Z,77.15
2022-09-16T12:23:00.564Z,79.72
2022-09-16T12:24:00.551Z,83.42
2022-09-16T12:25:00.544Z,86.07
2022-09-16T12:26:00.542Z,85.03
2022-09-16T12:27:00.516Z,88.12
2022-09-16T12:28:00.506Z,88.87
2022-09-16T12:29:00.491Z,91.56
2022-09-16T12:30:00.481Z,93.09
2022-09-16T12:31:00.511Z,95.58
2022-09-16T12:32:00.457Z,94.50
2022-09-16T12:33:00.428Z,97.40
2022-09-16T12:34:00.418Z,98.73
2022-09-16T12:35:00.419Z,99.44
2022-09-16T12:36:00.406Z,99.99
2022-09-16T12:37:00.374Z,99.99
2022-09-16T12:38:00.367Z,99.65
2022-09-16T12:39:00.354Z,99.91
2022-09-16T12:40:00.432Z,97.81
2022-09-16T12:41:00.330Z,96.18
2022-09-16T12:42:00.322Z,97.91
2022-09-16T12:43:00.328Z,98.48
2022-09-16T12:44:06.467Z,99.35
2022-09-16T12:45:01.271Z,99.46
2022-09-16T12:46:01.322Z,99.82
2022-09-16T12:47:00.252Z,99.37
2022-09-16T12:48:00.243Z,98.91
2022-09-16T12:49:00.224Z,98.61
2022-09-16T12:50:00.229Z,97.34
2022-09-16T12:51:00.198Z,96.83
2022-09-16T12:52:00.185Z,96.69
2022-09-16T12:53:00.179Z,95.87
2022-09-16T12:54:00.155Z,95.26